createdAt,value
2023-02-26T00:00:44.495Z,98640.64
2023-02-26T00:03:33.101Z,98642.95
2023-02-26T00:06:02.475Z,98644.18
2023-02-26T00:08:28.384Z,98653.11
2023-02-26T00:10:57.568Z,98652.48
2023-02-26T00:13:26.724Z,98656.81
2023-02-26T00:15:56.289Z,98662.34
2023-02-26T00:18:25.744Z,98673.30
2023-02-26T00:20:54.111Z,98673.64
2023-02-26T00:23:30.314Z,98682.23
2023-02-26T00:26:16.421Z,98689.05
2023-02-26T00:28:46.194Z,98682.42
2023-02-26T00:31:32.756Z,98685.02
2023-02-26T00:34:12.995Z,98687.96
2023-02-26T00:36:43.799Z,98689.74
2023-02-26T00:39:30.025Z,98690.50
2023-02-26T00:41:59.333Z,98699.61
2023-02-26T00:44:38.708Z,98698.78
2023-02-26T00:47:10.214Z,98705.99
2023-02-26T00:49:48.320Z,98711.52
2023-02-26T00:52:40.519Z,98714.83
2023-02-26T00:55:25.536Z,98714.67
2023-02-26T00:58:12.450Z,98722.92
2023-02-26T01:00:38.497Z,98729.25
2023-02-26T01:03:25.005Z,98726.52
2023-02-26T01:05:55.070Z,98735.42
2023-02-26T01:08:33.163Z,98734.91
2023-02-26T01:11:02.988Z,98734.90
2023-02-26T01:13:29.277Z,98731.50
2023-02-26T01:16:00.521Z,98738.52
2023-02-26T01:18:43.156Z,98743.14
2023-02-26T01:21:16.519Z,98743.82
2023-02-26T01:23:53.215Z,98751.51
2023-02-26T01:26:29.338Z,98758.17
2023-02-26T01:28:59.206Z,98767.77
2023-02-26T01:31:40.607Z,98770.86
2023-02-26T01:34:15.904Z,98776.84
2023-02-26T01:36:57.465Z,98781.80
2023-02-26T01:39:37.884Z,98787.76
2023-02-26T01:42:20.836Z,98785.73
2023-02-26T01:44:56.282Z,98798.91
2023-02-26T01:47:29.880Z,98806.29
2023-02-26T01:50:13.118Z,98805.28
2023-02-26T01:53:01.835Z,98811.11
2023-02-26T01:55:30.302Z,98814.03
2023-02-26T01:58:02.730Z,98816.45
2023-02-26T02:00:48.738Z,98821.11
2023-02-26T02:03:25.882Z,98830.16
2023-02-26T02:05:58.373Z,98841.95
2023-02-26T02:08:44.475Z,98851.34
2023-02-26T02:11:31.280Z,98865.17
2023-02-26T02:14:07.802Z,98872.69
2023-02-26T02:16:49.314Z,98879.18
2023-02-26T02:19:49.561Z,98880.21
2023-02-26T02:22:52.573Z,98883.16
2023-02-26T02:25:46.950Z,98891.72
2023-02-26T02:28:39.892Z,98898.38
2023-02-26T02:31:23.381Z,98912.21
2023-02-26T02:34:04.655Z,98920.73
2023-02-26T02:36:54.243Z,98917.80
2023-02-26T02:39:42.424Z,98921.21
2023-02-26T02:42:32.100Z,98925.97
2023-02-26T02:45:21.021Z,98921.50
2023-02-26T02:47:59.379Z,98921.67
2023-02-26T02:50:47.518Z,98924.23
2023-02-26T02:53:19.484Z,98924.55
2023-02-26T02:55:50.116Z,98927.94
2023-02-26T02:58:40.043Z,98930.50
2023-02-26T03:01:17.670Z,98932.38
2023-02-26T04:11:26.315Z,99050.91
2023-02-26T04:14:12.306Z,99057.40
2023-02-26T04:16:58.771Z,99065.08
2023-02-26T04:19:27.808Z,99070.38
2023-02-26T04:22:05.445Z,99076.01
2023-02-26T04:24:44.543Z,99079.08
2023-02-26T04:27:30.418Z,99082.52
2023-02-26T04:30:16.468Z,99088.29
2023-02-26T04:33:02.501Z,99094.08
2023-02-26T04:35:49.113Z,99092.35
2023-02-26T04:38:35.200Z,99093.53
2023-02-26T04:41:10.136Z,99096.95
2023-02-26T04:43:56.066Z,99097.96
2023-02-26T04:46:42.288Z,99100.72
2023-02-26T04:49:28.327Z,99104.65
2023-02-26T04:52:07.612Z,99106.52
2023-02-26T04:54:43.510Z,99109.60
2023-02-26T04:57:13.554Z,99115.41
2023-02-26T04:59:39.852Z,99118.99
2023-02-26T05:02:19.277Z,99122.07
2023-02-26T05:05:05.419Z,99124.63
2023-02-26T05:07:42.266Z,99127.04
2023-02-26T05:10:17.524Z,99130.48
2023-02-26T05:12:52.375Z,99136.67
2023-02-26T05:15:38.179Z,99143.00
2023-02-26T05:18:17.978Z,99151.56
2023-02-26T05:20:46.195Z,99156.52
2023-02-26T05:23:15.055Z,99162.17
2023-02-26T05:25:51.918Z,99162.19
2023-02-26T05:28:27.668Z,99165.77
2023-02-26T05:31:13.774Z,99172.29
2023-02-26T05:33:57.372Z,99176.73
2023-02-26T05:36:23.682Z,99180.31
2023-02-26T05:38:54.216Z,99185.61
2023-02-26T05:41:40.413Z,99187.85
2023-02-26T05:44:16.110Z,99195.03
2023-02-26T05:47:02.672Z,99207.70
2023-02-26T05:49:48.500Z,99215.72
2023-02-26T05:52:17.542Z,99228.88
2023-02-26T05:55:03.379Z,99230.45
2023-02-26T05:57:49.481Z,99239.39
2023-02-26T06:00:25.704Z,99247.11
2023-02-26T06:03:01.623Z,99252.26
2023-02-26T06:05:41.130Z,99262.68
2023-02-26T06:08:09.516Z,99269.35
2023-02-26T06:10:49.255Z,99269.20
2023-02-26T06:13:18.299Z,99281.16
2023-02-26T06:15:47.138Z,99282.52
2023-02-26T06:18:34.100Z,99285.08
2023-02-26T06:21:20.260Z,99291.58
2023-02-26T06:24:07.681Z,99291.92
2023-02-26T06:26:43.447Z,99300.64
2023-02-26T06:29:29.418Z,99305.27
2023-02-26T06:32:07.132Z,99313.79
2023-02-26T06:34:53.117Z,99320.46
2023-02-26T06:37:39.008Z,99326.74
2023-02-26T06:40:12.097Z,99335.10
2023-02-26T06:42:58.496Z,99339.38
2023-02-26T06:45:37.184Z,99341.61
2023-02-26T06:48:23.317Z,99348.10
2023-02-26T06:50:58.398Z,99350.83
2023-02-26T06:53:43.540Z,99355.09
2023-02-26T06:56:29.796Z,99360.89
2023-02-26T06:59:06.102Z,99361.73
2023-02-26T07:01:52.194Z,99369.06
2023-02-26T07:04:38.080Z,99371.64
2023-02-26T07:07:17.828Z,99371.97
2023-02-26T07:10:04.018Z,99382.38
2023-02-26T07:12:49.906Z,99389.88
2023-02-26T07:15:18.803Z,99391.25
2023-02-26T07:18:04.875Z,99403.04
2023-02-26T07:20:51.601Z,99409.34
2023-02-26T07:23:37.391Z,99411.02
2023-02-26T07:26:12.060Z,99412.23
2023-02-26T07:28:47.668Z,99419.73
2023-02-26T07:31:34.412Z,99420.09
2023-02-26T07:34:20.464Z,99425.37
2023-02-26T07:37:06.476Z,99435.27
2023-02-26T07:39:52.826Z,99433.04
2023-02-26T07:42:22.303Z,99438.49
2023-02-26T07:45:09.691Z,99444.65
2023-02-26T07:47:44.228Z,99450.79
2023-02-26T07:50:30.429Z,99454.58
2023-02-26T07:53:17.158Z,99461.75
2023-02-26T07:56:03.149Z,99467.04
2023-02-26T07:58:31.905Z,99469.27
2023-02-26T08:01:17.785Z,99472.84
2023-02-26T08:03:52.837Z,99479.16
2023-02-26T08:06:22.014Z,99482.06
2023-02-26T08:09:08.296Z,99483.77
2023-02-26T08:11:54.143Z,99490.24
2023-02-26T08:14:42.004Z,99492.81
2023-02-26T08:17:28.019Z,99500.48
2023-02-26T08:20:15.422Z,99498.94
2023-02-26T08:22:53.014Z,99509.84
2023-02-26T08:25:20.998Z,99513.58
2023-02-26T08:27:46.550Z,99522.83
2023-02-26T08:30:15.564Z,99521.65
2023-02-26T08:33:01.391Z,99527.14
2023-02-26T08:35:47.311Z,99533.10
2023-02-26T08:38:32.478Z,99535.67
2023-02-26T08:41:19.083Z,99537.73
2023-02-26T08:44:05.722Z,99540.14
2023-02-26T08:46:51.904Z,99545.97
2023-02-26T08:49:38.191Z,99545.97
2023-02-26T08:52:15.521Z,99561.86
2023-02-26T08:54:44.471Z,99564.42
2023-02-26T08:57:15.798Z,99575.70
2023-02-26T08:59:44.775Z,99576.89
2023-02-26T09:02:14.034Z,99583.55
2023-02-26T09:05:00.215Z,99588.51
2023-02-26T09:07:29.240Z,99598.26
2023-02-26T09:10:15.605Z,99600.66
2023-02-26T09:12:50.894Z,99605.95
2023-02-26T09:15:16.794Z,99611.25
2023-02-26T09:17:56.145Z,99613.29
2023-02-26T09:20:32.084Z,99620.47
2023-02-26T09:23:17.879Z,99625.77
2023-02-26T09:26:04.123Z,99629.54
2023-02-26T09:28:50.136Z,99631.92
2023-02-26T09:31:36.625Z,99633.80
2023-02-26T09:34:15.320Z,99637.38
2023-02-26T09:37:01.058Z,99644.73
2023-02-26T09:39:38.029Z,99642.69
2023-02-26T09:42:23.755Z,99645.95
2023-02-26T09:45:13.802Z,99651.23
2023-02-26T09:47:41.974Z,99661.50
2023-02-26T09:50:30.938Z,99665.60
2023-02-26T09:53:19.592Z,99676.90
2023-02-26T09:55:50.567Z,99683.23
2023-02-26T09:58:38.884Z,99687.84
2023-02-26T10:01:26.867Z,99683.23
2023-02-26T10:04:09.006Z,99686.14
2023-02-26T10:07:01.667Z,99688.19
2023-02-26T10:09:33.121Z,99694.17
2023-02-26T10:12:22.288Z,99696.04
2023-02-26T10:15:13.410Z,99698.27
2023-02-26T10:17:56.322Z,99699.63
2023-02-26T10:20:25.238Z,99705.10
2023-02-26T10:23:18.481Z,99705.62
2023-02-26T10:25:49.224Z,99706.98
2023-02-26T10:28:48.363Z,99708.70
2023-02-26T10:31:24.755Z,99714.34
2023-02-26T10:33:58.048Z,99716.73
2023-02-26T10:36:41.917Z,99716.23
2023-02-26T10:39:17.452Z,99725.29
2023-02-26T10:42:05.080Z,99732.95
2023-02-26T10:44:35.816Z,99741.50
2023-02-26T10:47:30.128Z,99744.77
2023-02-26T10:50:12.060Z,99749.23
2023-02-26T10:52:38.615Z,99750.25
2023-02-26T10:55:22.786Z,99750.94
2023-02-26T10:58:04.876Z,99759.00
2023-02-26T11:00:43.141Z,99760.70
2023-02-26T11:03:24.907Z,99765.16
2023-02-26T11:05:53.907Z,99771.83
2023-02-26T11:08:41.972Z,99769.27
2023-02-26T11:11:10.769Z,99765.48
2023-02-26T11:13:49.381Z,99772.67
2023-02-26T11:16:35.868Z,99777.99
2023-02-26T11:19:15.161Z,99778.83
2023-02-26T11:22:02.449Z,99787.72
2023-02-26T11:24:40.604Z,99792.02
2023-02-26T11:27:30.041Z,99789.10
2023-02-26T11:29:57.786Z,99792.00
2023-02-26T11:32:33.900Z,99793.55
2023-02-26T11:35:14.939Z,99798.52
2023-02-26T11:37:41.673Z,99804.33
2023-02-26T11:40:32.408Z,99807.42
2023-02-26T11:43:10.807Z,99809.48
2023-02-26T11:45:49.242Z,99813.39
2023-02-26T11:48:39.484Z,99816.64
2023-02-26T11:51:10.833Z,99822.98
2023-02-26T11:53:37.082Z,99825.72
2023-02-26T11:56:11.023Z,99825.72
2023-02-26T11:58:41.241Z,99831.20
2023-02-26T12:01:11.822Z,99831.90
2023-02-26T12:03:51.177Z,99839.60
2023-02-26T12:06:36.331Z,99845.77
2023-02-26T12:09:22.998Z,99851.09
2023-02-26T12:12:26.137Z,99855.54
2023-02-26T12:15:03.579Z,99858.79
2023-02-26T12:17:52.829Z,99863.23
2023-02-26T12:20:43.403Z,99867.00
2023-02-26T12:23:29.742Z,99867.86
2023-02-26T12:26:24.644Z,99874.54
2023-02-26T12:29:17.348Z,99872.64
2023-02-26T12:32:11.583Z,99881.02
2023-02-26T12:35:17.264Z,99880.01
2023-02-26T12:38:09.708Z,99878.13
2023-02-26T12:41:08.959Z,99878.82
2023-02-26T12:43:44.334Z,99877.62
2023-02-26T12:46:19.577Z,99875.05
2023-02-26T12:49:05.624Z,99879.69
2023-02-26T12:51:38.958Z,99880.70
2023-02-26T12:54:14.967Z,99886.70
2023-02-26T12:57:02.178Z,99889.26
2023-02-26T12:59:49.784Z,99893.89
2023-02-26T13:02:31.394Z,99895.77
2023-02-26T13:05:07.015Z,99900.20
2023-02-26T13:07:42.713Z,99902.79
2023-02-26T13:10:24.369Z,99898.15
2023-02-26T13:12:55.563Z,99902.60
2023-02-26T13:15:39.336Z,99903.79
2023-02-26T13:18:09.221Z,99911.33
2023-02-26T13:20:54.251Z,99913.05
2023-02-26T13:23:26.398Z,99912.71
2023-02-26T13:26:14.963Z,99918.88
2023-02-26T13:28:44.968Z,99918.02
2023-02-26T13:31:19.004Z,99922.80
2023-02-26T13:33:47.649Z,99922.63
2023-02-26T13:36:35.185Z,99923.64
2023-02-26T13:39:16.748Z,99926.73
2023-02-26T13:42:09.436Z,99932.20
2023-02-26T13:44:54.204Z,99935.09
2023-02-26T13:47:50.300Z,99936.13
2023-02-26T13:50:31.810Z,99939.04
2023-02-26T13:53:40.029Z,99934.56
2023-02-26T13:56:14.397Z,99935.92
2023-02-26T13:58:53.436Z,99940.73
2023-02-26T14:01:20.158Z,99948.27
2023-02-26T14:04:24.124Z,99950.98
2023-02-26T14:07:14.518Z,99954.94
2023-02-26T14:09:57.897Z,99955.10
2023-02-26T14:12:44.315Z,99953.70
2023-02-26T14:15:38.597Z,99951.48
2023-02-26T14:18:27.124Z,99956.43
2023-02-26T14:21:38.330Z,99960.05
2023-02-26T14:24:26.749Z,99968.77
2023-02-26T14:27:05.116Z,99973.25
2023-02-26T14:29:40.194Z,99971.55
2023-02-26T14:32:31.379Z,99974.31
2023-02-26T14:35:01.894Z,99976.89
2023-02-26T14:37:58.705Z,99977.24
2023-02-26T14:40:25.853Z,99979.81
2023-02-26T14:43:17.834Z,99984.48
2023-02-26T14:46:05.230Z,99992.04
2023-02-26T14:48:51.456Z,99998.21
2023-02-26T14:51:43.898Z,100000.79
2023-02-26T14:54:35.576Z,100002.33
2023-02-26T14:57:26.739Z,100007.83
2023-02-26T15:00:19.148Z,100011.73
2023-02-26T15:03:23.840Z,100004.37
2023-02-26T15:06:10.313Z,100006.09
2023-02-26T15:08:55.315Z,100006.61
2023-02-26T15:11:28.258Z,100007.30
2023-02-26T15:14:03.582Z,100011.75
2023-02-26T15:16:46.362Z,100017.92
2023-02-26T15:19:40.214Z,100022.04
2023-02-26T15:22:26.030Z,100022.38
2023-02-26T15:25:03.871Z,100027.69
2023-02-26T15:27:49.854Z,100029.06
2023-02-26T15:30:36.425Z,100033.16
2023-02-26T15:33:24.801Z,100039.85
2023-02-26T15:36:13.630Z,100050.47
2023-02-26T15:39:00.313Z,100051.67
2023-02-26T15:41:48.419Z,100059.04
2023-02-26T15:44:28.521Z,100057.84
2023-02-26T15:47:09.626Z,100064.84
2023-02-26T15:49:39.468Z,100067.58
2023-02-26T15:52:27.129Z,100068.61
2023-02-26T15:55:16.210Z,100071.52
2023-02-26T15:58:02.779Z,100077.86
2023-02-26T16:00:53.627Z,100080.59
2023-02-26T16:03:31.653Z,100082.09
2023-02-26T16:06:19.135Z,100088.25
2023-02-26T16:09:06.126Z,100100.40
2023-02-26T16:11:45.552Z,100107.94
2023-02-26T16:14:34.801Z,100106.90
2023-02-26T16:17:24.890Z,100112.71
2023-02-26T16:19:55.621Z,100114.73
2023-02-26T16:22:44.534Z,100123.30
2023-02-26T16:25:18.624Z,100120.89
2023-02-26T16:27:49.638Z,100121.58
2023-02-26T16:30:36.955Z,100122.94
2023-02-26T16:33:23.806Z,100133.04
2023-02-26T16:36:14.664Z,100132.19
2023-02-26T16:38:51.958Z,100135.42
2023-02-26T16:41:38.201Z,100139.19
2023-02-26T16:47:28.150Z,100146.89
2023-02-26T16:50:18.208Z,100152.86
2023-02-26T16:52:49.099Z,100151.80
2023-02-26T16:55:36.490Z,100158.46
2023-02-26T16:58:23.251Z,100164.61
2023-02-26T17:01:14.560Z,100164.42
2023-02-26T17:03:55.848Z,100167.67
2023-02-26T17:06:24.657Z,100172.64
2023-02-26T17:09:29.361Z,100179.48
2023-02-26T17:12:16.788Z,100182.89
2023-02-26T17:14:43.674Z,100187.00
2023-02-26T17:17:29.514Z,100192.48
2023-02-26T17:20:15.826Z,100191.96
2023-02-26T17:23:03.621Z,100196.76
2023-02-26T17:25:41.041Z,100201.55
2023-02-26T17:28:28.145Z,100204.29
2023-02-26T17:31:04.588Z,100211.47
2023-02-26T17:33:51.176Z,100217.30
2023-02-26T17:36:37.171Z,100220.02
2023-02-26T17:39:15.117Z,100228.92
2023-02-26T17:41:45.697Z,100227.73
2023-02-26T17:44:31.426Z,100232.52
2023-02-26T17:47:14.156Z,100233.36
2023-02-26T17:49:40.016Z,100234.04
2023-02-26T17:52:26.776Z,100237.29
2023-02-26T17:54:56.121Z,100245.84
2023-02-26T17:57:43.950Z,100246.50
2023-02-26T18:00:15.560Z,100251.80
2023-02-26T18:02:41.172Z,100255.57
2023-02-26T18:05:18.504Z,100261.57
2023-02-26T18:08:04.506Z,100265.84
2023-02-26T18:10:30.476Z,100263.27
2023-02-26T18:13:16.531Z,100269.60
2023-02-26T18:16:03.162Z,100267.19
2023-02-26T18:18:49.471Z,100270.27
2023-02-26T18:21:35.550Z,100274.19
2023-02-26T18:24:21.434Z,100275.38
2023-02-26T18:26:57.716Z,100277.09
2023-02-26T18:29:44.396Z,100283.43
2023-02-26T18:32:11.026Z,100283.92
2023-02-26T18:34:47.767Z,100284.60
2023-02-26T18:37:35.196Z,100286.46
2023-02-26T18:40:22.967Z,100290.05
2023-02-26T18:44:16.292Z,100294.18
2023-02-26T18:46:56.338Z,100302.43
2023-02-26T18:49:35.206Z,100309.61
2023-02-26T18:52:03.233Z,100309.26
2023-02-26T18:54:51.519Z,100314.04
2023-02-26T18:57:30.684Z,100314.02
2023-02-26T19:00:14.443Z,100320.19
2023-02-26T19:03:01.998Z,100323.42
2023-02-26T19:05:33.470Z,100326.17
2023-02-26T19:08:11.203Z,100327.53
2023-02-26T19:10:39.393Z,100331.96
2023-02-26T19:13:27.309Z,100334.52
2023-02-26T19:15:55.603Z,100335.66
2023-02-26T19:18:22.940Z,100341.64
2023-02-26T19:20:54.331Z,100346.29
2023-02-26T19:23:32.423Z,100349.55
2023-02-26T19:25:59.739Z,100348.88
2023-02-26T19:28:41.209Z,100351.63
2023-02-26T19:31:11.723Z,100349.74
2023-02-26T19:33:59.364Z,100355.75
2023-02-26T19:36:48.448Z,100354.55
2023-02-26T19:39:26.812Z,100358.83
2023-02-26T19:42:14.612Z,100359.52
2023-02-26T19:44:51.886Z,100364.64
2023-02-26T19:47:18.993Z,100368.92
2023-02-26T19:49:46.379Z,100372.52
2023-02-26T19:52:16.676Z,100373.38
2023-02-26T19:55:04.724Z,100371.50
2023-02-26T19:57:52.470Z,100374.77
2023-02-26T20:00:23.498Z,100375.80
2023-02-26T20:02:50.840Z,100379.90
2023-02-26T20:05:39.736Z,100383.33
2023-02-26T20:08:07.601Z,100387.44
2023-02-26T20:10:41.008Z,100393.61
2023-02-26T20:13:30.409Z,100396.36
2023-02-26T20:15:58.670Z,100399.10
2023-02-26T20:18:46.096Z,100403.36
2023-02-26T20:21:33.586Z,100406.13
2023-02-26T20:24:21.335Z,100404.58
2023-02-26T20:26:49.169Z,100407.32
2023-02-26T20:29:18.494Z,100413.33
2023-02-26T20:31:49.777Z,100415.39
2023-02-26T20:34:19.375Z,100418.48
2023-02-26T20:36:48.468Z,100422.27
2023-02-26T20:39:19.688Z,100426.24
2023-02-26T20:42:07.301Z,100428.48
2023-02-26T20:44:48.659Z,100428.49
2023-02-26T20:47:27.109Z,100435.01
2023-02-26T20:49:54.375Z,100432.80
2023-02-26T20:52:24.408Z,100435.54
2023-02-26T20:54:59.182Z,100438.11
2023-02-26T20:57:29.516Z,100437.77
2023-02-26T21:00:18.924Z,100442.41
2023-02-26T21:03:08.070Z,100439.66
2023-02-26T21:05:49.221Z,100439.84
2023-02-26T21:08:16.715Z,100446.17
2023-02-26T21:10:54.906Z,100446.34
2023-02-26T21:13:33.840Z,100452.86
2023-02-26T21:16:12.963Z,100451.68
2023-02-26T21:19:00.350Z,100457.84
2023-02-26T21:21:37.058Z,100457.50
2023-02-26T21:24:24.921Z,100465.21
2023-02-26T21:26:59.741Z,100464.17
2023-02-26T21:29:38.062Z,100464.52
2023-02-26T21:32:25.696Z,100471.52
2023-02-26T21:34:55.788Z,100476.84
2023-02-26T21:37:43.505Z,100473.42
2023-02-26T21:40:13.350Z,100472.89
2023-02-26T21:42:40.556Z,100476.83
2023-02-26T21:45:09.787Z,100479.39
2023-02-26T21:47:37.585Z,100482.80
2023-02-26T21:50:15.792Z,100487.23
2023-02-26T21:53:03.305Z,100489.97
2023-02-26T21:55:40.881Z,100492.52
2023-02-26T21:58:28.316Z,100493.71
2023-02-26T22:01:16.207Z,100490.95
2023-02-26T22:03:53.298Z,100490.62
2023-02-26T22:06:22.980Z,100494.04
2023-02-26T22:09:10.359Z,100497.60
2023-02-26T22:11:39.973Z,100498.41
2023-02-26T22:14:11.992Z,100498.40
2023-02-26T22:16:42.424Z,100505.92
2023-02-26T22:19:09.836Z,100510.20
2023-02-26T22:21:57.416Z,100515.83
2023-02-26T22:24:41.224Z,100512.41
2023-02-26T22:27:19.806Z,100514.62
2023-02-26T22:30:09.295Z,100519.23
2023-02-26T22:32:57.226Z,100517.67
2023-02-26T22:35:29.738Z,100517.48
2023-02-26T22:38:00.047Z,100521.91
2023-02-26T22:40:47.598Z,100525.34
2023-02-26T22:43:35.391Z,100525.83
2023-02-26T22:46:23.326Z,100525.65
2023-02-26T22:49:11.035Z,100526.52
2023-02-26T22:51:58.453Z,100526.32
2023-02-26T22:54:47.016Z,100525.66
2023-02-26T22:57:34.452Z,100528.21
2023-02-26T23:00:22.993Z,100534.13
2023-02-26T23:03:10.440Z,100530.69
2023-02-26T23:05:41.097Z,100541.45
2023-02-26T23:08:11.485Z,100544.20
2023-02-26T23:11:01.492Z,100539.61
2023-02-26T23:13:39.613Z,100537.23
2023-02-26T23:16:27.505Z,100542.23
2023-02-26T23:19:14.903Z,100550.60
2023-02-26T23:21:45.525Z,100556.77
2023-02-26T23:24:31.661Z,100562.59
2023-02-26T23:27:19.670Z,100569.23
2023-02-26T23:29:57.985Z,100573.47
2023-02-26T23:32:28.042Z,100573.97
2023-02-26T23:34:58.176Z,100580.63
2023-02-26T23:37:45.982Z,100582.85
2023-02-26T23:40:14.900Z,100581.64
2023-02-26T23:42:47.262Z,100577.01
2023-02-26T23:45:15.246Z,100572.71
2023-02-26T23:47:46.453Z,100570.49
2023-02-26T23:50:17.216Z,100580.42
2023-02-26T23:52:47.464Z,100581.61
2023-02-26T23:55:35.031Z,100589.13
2023-02-26T23:58:02.116Z,100590.81
